Time;durP1;ratioP1;P1;durP2;ratioP2;P2;SDS_P1;SDS_P2;PMS_P1;PMS_P2;Temp;Humidity;BMP_temperature;BMP_pressure;BME280_temperature;BME280_humidity;BME280_pressure;Samples;Min_cycle;Max_cycle;Signal;HPM_P1;HPM_P2
2023/07/15 00:01:36;;;;;;;6.80;2.60;;;21.00;99.90;;;;;;5072395;28;20068;-60
2023/07/15 00:04:02;;;;;;;3.50;2.20;;;21.00;99.90;;;;;;5072268;28;20024;-57
2023/07/15 00:06:28;;;;;;;4.97;2.70;;;21.00;99.90;;;;;;5072105;28;20024;-58
2023/07/15 00:08:55;;;;;;;8.18;2.47;;;20.90;99.90;;;;;;5071772;28;20055;-58
2023/07/15 00:11:28;;;;;;;6.10;2.47;;;20.80;99.90;;;;;;5072066;28;20021;-56
2023/07/15 00:13:54;;;;;;;4.97;2.25;;;20.80;99.90;;;;;;5072030;28;20017;-57
2023/07/15 00:16:20;;;;;;;3.10;2.00;;;20.70;99.90;;;;;;5072134;28;20027;-60
2023/07/15 00:18:46;;;;;;;6.38;2.67;;;20.60;99.90;;;;;;5071699;28;20021;-58
2023/07/15 00:21:32;;;;;;;4.95;2.63;;;20.60;99.90;;;;;;5071732;28;20394;-58
2023/07/15 00:24:00;;;;;;;4.82;2.45;;;20.50;99.90;;;;;;5071658;28;20389;-61
2023/07/15 00:26:32;;;;;;;4.75;2.58;;;20.40;99.90;;;;;;5071749;28;20048;-58
2023/07/15 00:28:58;;;;;;;7.32;2.85;;;20.40;99.90;;;;;;5071527;28;20020;-57
2023/07/15 00:31:24;;;;;;;5.20;2.78;;;20.40;99.90;;;;;;5071726;28;20031;-58
2023/07/15 00:33:49;;;;;;;8.48;2.65;;;20.30;99.90;;;;;;5071647;28;20024;-57
2023/07/15 00:36:16;;;;;;;3.70;2.50;;;20.30;99.90;;;;;;5071455;28;20032;-57
2023/07/15 00:38:43;;;;;;;5.25;2.75;;;20.30;99.90;;;;;;5071444;28;20017;-58
2023/07/15 00:41:20;;;;;;;4.00;2.47;;;20.30;99.90;;;;;;5071472;28;20085;-56
2023/07/15 00:43:56;;;;;;;7.70;2.78;;;20.20;99.90;;;;;;5071606;28;20020;-57
2023/07/15 00:46:23;;;;;;;4.40;2.55;;;20.20;99.90;;;;;;5071356;28;20023;-60
2023/07/15 00:49:10;;;;;;;4.78;2.78;;;20.20;99.90;;;;;;5071259;28;20021;-58
2023/07/15 00:51:38;;;;;;;5.63;2.67;;;20.00;99.90;;;;;;5071564;28;20099;-59
2023/07/15 00:54:05;;;;;;;6.68;2.80;;;20.00;99.90;;;;;;5070726;28;20098;-61
2023/07/15 00:56:34;;;;;;;5.22;2.78;;;19.90;99.90;;;;;;5071170;28;20028;-58
2023/07/15 00:59:00;;;;;;;4.15;2.17;;;19.90;99.90;;;;;;5071085;28;20040;-60
2023/07/15 01:01:26;;;;;;;7.03;2.95;;;19.80;99.90;;;;;;5071358;28;20032;-60
2023/07/15 01:03:54;;;;;;;10.85;3.50;;;19.80;99.90;;;;;;5071341;28;20025;-60
2023/07/15 01:06:21;;;;;;;6.25;3.08;;;19.80;99.90;;;;;;5071049;28;20483;-58
2023/07/15 01:08:46;;;;;;;8.40;3.20;;;19.70;99.90;;;;;;5071047;28;20028;-59
2023/07/15 01:11:12;;;;;;;6.50;3.00;;;19.60;99.90;;;;;;5069855;28;20028;-57
2023/07/15 01:13:38;;;;;;;6.47;2.53;;;19.50;99.90;;;;;;5071295;28;20422;-58
2023/07/15 01:16:04;;;;;;;5.07;2.97;;;19.40;99.90;;;;;;5071131;28;20029;-57
2023/07/15 01:18:30;;;;;;;5.60;2.80;;;19.40;99.90;;;;;;5071084;28;20107;-57
2023/07/15 01:20:59;;;;;;;5.25;3.05;;;19.40;99.90;;;;;;5071043;28;20494;-61
2023/07/15 01:23:26;;;;;;;5.15;2.58;;;19.40;99.90;;;;;;5071162;28;20035;-57
2023/07/15 01:25:51;;;;;;;4.93;2.28;;;19.30;99.90;;;;;;5070945;28;20418;-61
2023/07/15 01:28:17;;;;;;;5.20;2.50;;;19.30;99.90;;;;;;5070908;28;20036;-56
2023/07/15 01:30:43;;;;;;;4.70;2.78;;;19.30;99.90;;;;;;5070867;28;20021;-57
2023/07/15 01:33:09;;;;;;;3.78;2.50;;;19.30;99.90;;;;;;5069961;28;20031;-59
2023/07/15 01:35:35;;;;;;;5.95;3.00;;;19.30;99.90;;;;;;5070971;28;20024;-60
2023/07/15 01:38:01;;;;;;;3.83;2.50;;;19.20;99.90;;;;;;5070922;28;20035;-60
2023/07/15 01:40:27;;;;;;;7.65;2.47;;;19.10;99.90;;;;;;5070692;28;20032;-61
2023/07/15 01:42:52;;;;;;;3.33;2.20;;;19.10;99.90;;;;;;5070902;28;20025;-59
2023/07/15 01:45:18;;;;;;;4.10;2.40;;;19.00;99.90;;;;;;5070811;28;20033;-60
2023/07/15 01:47:43;;;;;;;6.95;3.33;;;18.90;99.90;;;;;;5070894;28;20039;-60
2023/07/15 01:50:09;;;;;;;4.55;2.70;;;18.80;99.90;;;;;;5070556;28;20028;-55
2023/07/15 01:52:34;;;;;;;3.25;2.00;;;18.70;99.90;;;;;;5070933;28;20025;-58
2023/07/15 01:55:00;;;;;;;9.68;3.00;;;18.70;99.90;;;;;;5070682;28;20040;-58
2023/07/15 01:57:26;;;;;;;4.95;2.88;;;18.60;99.90;;;;;;5070657;28;20031;-57
2023/07/15 01:59:57;;;;;;;7.68;2.72;;;18.60;99.90;;;;;;5070672;28;20082;-55
2023/07/15 02:02:24;;;;;;;6.20;2.92;;;18.60;99.90;;;;;;5070919;28;20040;-54
2023/07/15 02:04:50;;;;;;;4.63;2.35;;;18.50;99.90;;;;;;5071016;28;20025;-59
2023/07/15 02:07:15;;;;;;;7.15;3.17;;;18.40;99.90;;;;;;5074334;28;20032;-58
2023/07/15 02:09:41;;;;;;;12.43;4.43;;;18.40;99.90;;;;;;5074113;28;20032;-58
2023/07/15 02:12:07;;;;;;;9.60;4.95;;;18.30;99.90;;;;;;5074369;28;20017;-60
2023/07/15 02:14:32;;;;;;;9.93;5.10;;;18.30;99.90;;;;;;5074283;28;20139;-60
2023/07/15 02:16:58;;;;;;;17.35;7.43;;;18.20;99.90;;;;;;5074301;28;20119;-59
2023/07/15 02:19:24;;;;;;;14.20;6.80;;;18.20;99.90;;;;;;5074067;28;20024;-60
2023/07/15 02:21:49;;;;;;;16.63;6.55;;;18.20;99.90;;;;;;5073050;28;20040;-57
2023/07/15 02:24:15;;;;;;;17.38;6.45;;;18.20;99.90;;;;;;5073911;28;20036;-60
2023/07/15 02:26:40;;;;;;;15.40;5.70;;;18.30;99.90;;;;;;5074201;28;20036;-59
2023/07/15 02:29:06;;;;;;;8.23;4.45;;;18.30;99.90;;;;;;5074756;28;20032;-60
2023/07/15 02:31:31;;;;;;;14.18;5.20;;;18.40;99.90;;;;;;5074589;28;20103;-60
2023/07/15 02:33:57;;;;;;;9.27;4.72;;;18.40;99.90;;;;;;5074744;28;20032;-59
2023/07/15 02:36:22;;;;;;;10.95;4.75;;;18.40;99.90;;;;;;5074247;28;20033;-59
2023/07/15 02:38:48;;;;;;;9.02;5.38;;;18.50;99.90;;;;;;5073893;28;20047;-59
2023/07/15 02:41:14;;;;;;;10.50;4.28;;;18.50;99.90;;;;;;5073607;28;20450;-58
2023/07/15 02:43:40;;;;;;;14.07;4.13;;;18.50;99.90;;;;;;5074136;28;20052;-59
2023/07/15 02:46:05;;;;;;;7.50;3.53;;;18.50;99.90;;;;;;5073816;28;20044;-58
2023/07/15 02:48:31;;;;;;;8.85;3.58;;;18.50;99.90;;;;;;5073682;28;20021;-57
2023/07/15 02:50:57;;;;;;;8.65;3.08;;;18.60;99.90;;;;;;5073464;28;20033;-62
2023/07/15 02:53:22;;;;;;;13.38;3.40;;;18.60;99.90;;;;;;5073600;28;20099;-59
2023/07/15 02:55:49;;;;;;;8.57;2.75;;;18.70;99.90;;;;;;5073548;28;20032;-58
2023/07/15 02:58:17;;;;;;;3.70;2.35;;;18.70;99.90;;;;;;5073444;28;20021;-60
2023/07/15 03:00:43;;;;;;;6.20;2.55;;;18.80;99.90;;;;;;5073480;28;20029;-58
2023/07/15 03:03:09;;;;;;;4.47;2.33;;;18.80;99.90;;;;;;5073616;28;20035;-55
2023/07/15 03:05:36;;;;;;;2.78;2.10;;;18.90;99.90;;;;;;5073503;28;20021;-59
2023/07/15 03:08:01;;;;;;;5.43;2.00;;;18.90;99.90;;;;;;5073263;28;20025;-60
2023/07/15 03:10:27;;;;;;;4.65;2.28;;;18.90;99.90;;;;;;5073128;28;20123;-59
2023/07/15 03:12:52;;;;;;;6.03;1.80;;;18.90;99.90;;;;;;5073392;28;20032;-61
2023/07/15 03:15:19;;;;;;;6.60;2.10;;;18.90;99.90;;;;;;5073089;28;20035;-57
2023/07/15 03:17:44;;;;;;;6.78;2.55;;;18.90;99.90;;;;;;5072353;28;20442;-57
2023/07/15 03:20:22;;;;;;;7.10;2.00;;;19.00;99.90;;;;;;5072891;28;20032;-61
2023/07/15 03:22:48;;;;;;;3.95;1.80;;;18.90;99.90;;;;;;5073224;28;20494;-57
2023/07/15 03:25:14;;;;;;;8.73;1.60;;;19.00;99.90;;;;;;5072836;28;20503;-56
2023/07/15 03:27:41;;;;;;;6.10;2.10;;;18.90;99.90;;;;;;5073321;28;20039;-54
2023/07/15 03:30:07;;;;;;;3.03;1.70;;;19.00;99.90;;;;;;5072699;28;20038;-60
2023/07/15 03:32:35;;;;;;;3.22;1.90;;;19.00;99.90;;;;;;5072823;28;20031;-61
2023/07/15 03:35:03;;;;;;;3.72;2.05;;;19.00;99.90;;;;;;5072597;28;20047;-60
2023/07/15 03:37:32;;;;;;;2.78;1.70;;;19.00;99.90;;;;;;5072710;28;20475;-59
2023/07/15 03:39:58;;;;;;;5.00;2.60;;;19.10;99.90;;;;;;5072511;28;20379;-56
2023/07/15 03:42:25;;;;;;;3.60;2.13;;;19.10;99.90;;;;;;5072642;28;20047;-60
2023/07/15 03:44:51;;;;;;;3.85;2.47;;;19.00;99.90;;;;;;5072623;28;20031;-58
2023/07/15 03:47:16;;;;;;;5.93;1.98;;;19.00;99.90;;;;;;5072459;28;20394;-58
2023/07/15 03:49:43;;;;;;;5.03;1.80;;;18.90;99.90;;;;;;5072191;28;20100;-60
2023/07/15 03:52:09;;;;;;;4.53;2.38;;;19.00;99.90;;;;;;5072420;28;20035;-55
2023/07/15 03:54:35;;;;;;;5.15;2.05;;;18.90;99.90;;;;;;5072294;28;20020;-58
2023/07/15 03:57:00;;;;;;;8.02;3.25;;;18.80;99.90;;;;;;5071052;28;20048;-60
2023/07/15 03:59:26;;;;;;;5.93;3.95;;;18.60;99.90;;;;;;5072362;28;20513;-59
2023/07/15 04:01:51;;;;;;;7.70;4.75;;;18.60;99.90;;;;;;5072343;28;20025;-57
2023/07/15 04:04:17;;;;;;;6.88;4.07;;;18.50;99.90;;;;;;5072015;28;20032;-60
2023/07/15 04:06:43;;;;;;;7.75;3.97;;;18.40;99.90;;;;;;5072455;28;20030;-57
2023/07/15 04:09:12;;;;;;;12.55;4.10;;;18.40;99.90;;;;;;5071802;28;20123;-60
2023/07/15 04:11:38;;;;;;;13.63;5.25;;;18.40;99.90;;;;;;5072216;28;20517;-60
2023/07/15 04:14:04;;;;;;;9.30;4.95;;;18.40;99.90;;;;;;5072153;28;20024;-56
2023/07/15 04:16:29;;;;;;;14.80;5.35;;;18.30;99.90;;;;;;5072006;28;20029;-59
2023/07/15 04:18:55;;;;;;;10.73;5.25;;;18.40;99.90;;;;;;5070605;28;20029;-57
2023/07/15 04:21:21;;;;;;;10.80;5.38;;;18.40;99.90;;;;;;5072057;28;20483;-55
2023/07/15 04:23:47;;;;;;;9.75;4.18;;;18.40;99.90;;;;;;5071994;28;20031;-56
2023/07/15 04:26:14;;;;;;;7.47;4.35;;;18.50;99.90;;;;;;5071644;28;20024;-55
2023/07/15 04:28:40;;;;;;;11.25;4.80;;;18.50;99.90;;;;;;5067419;28;20032;-57
2023/07/15 04:31:06;;;;;;;7.38;3.85;;;18.60;99.90;;;;;;5068010;28;20394;-57
2023/07/15 04:33:31;;;;;;;5.13;3.58;;;18.60;99.90;;;;;;5071695;28;20021;-60
2023/07/15 04:35:57;;;;;;;7.20;3.80;;;18.70;99.90;;;;;;5071677;28;20024;-59
2023/07/15 04:38:22;;;;;;;5.28;3.38;;;18.60;99.90;;;;;;5071538;28;20111;-58
2023/07/15 04:40:48;;;;;;;7.15;2.63;;;18.70;99.90;;;;;;5071497;28;20020;-58
2023/07/15 04:43:13;;;;;;;6.78;3.13;;;18.70;99.90;;;;;;5071509;28;20037;-54
2023/07/15 04:45:39;;;;;;;7.80;3.05;;;18.80;99.90;;;;;;5071487;28;20032;-57
2023/07/15 04:48:05;;;;;;;6.30;2.40;;;18.90;99.90;;;;;;5071692;28;20028;-56
2023/07/15 04:50:30;;;;;;;10.98;2.85;;;18.90;99.90;;;;;;5071226;28;20024;-57
2023/07/15 04:52:56;;;;;;;4.72;2.00;;;18.90;99.90;;;;;;5071426;28;20544;-56
2023/07/15 04:55:22;;;;;;;8.27;3.03;;;19.00;99.90;;;;;;5071304;28;20443;-55
2023/07/15 04:57:48;;;;;;;7.53;2.40;;;19.10;99.90;;;;;;5071260;28;20517;-59
2023/07/15 05:00:16;;;;;;;5.78;2.13;;;19.10;99.90;;;;;;5071126;28;20095;-57
2023/07/15 05:02:41;;;;;;;6.40;1.73;;;19.20;99.90;;;;;;5071408;28;20429;-56
2023/07/15 05:05:07;;;;;;;3.03;1.65;;;19.20;99.90;;;;;;5071242;28;20029;-57
2023/07/15 05:07:33;;;;;;;6.25;1.85;;;19.30;99.90;;;;;;5071347;28;20094;-58
2023/07/15 05:10:02;;;;;;;4.65;2.10;;;19.40;99.90;;;;;;5070920;28;20040;-59
2023/07/15 05:12:27;;;;;;;4.43;1.95;;;19.60;99.90;;;;;;5071248;28;20060;-59
2023/07/15 05:14:53;;;;;;;5.05;2.20;;;19.70;99.90;;;;;;5071203;28;20052;-56
2023/07/15 05:17:19;;;;;;;2.42;1.50;;;19.80;99.90;;;;;;5071085;28;20444;-56
2023/07/15 05:19:44;;;;;;;5.45;1.90;;;19.90;99.90;;;;;;5071086;28;20124;-56
2023/07/15 05:22:10;;;;;;;4.78;1.77;;;19.90;99.90;;;;;;5071115;28;20478;-58
2023/07/15 05:24:35;;;;;;;3.35;2.03;;;20.00;99.90;;;;;;5071104;28;20105;-60
2023/07/15 05:27:01;;;;;;;5.97;2.17;;;20.00;99.90;;;;;;5071100;28;20032;-57
2023/07/15 05:29:26;;;;;;;3.50;1.67;;;20.20;99.90;;;;;;5069643;28;20039;-58
2023/07/15 05:31:52;;;;;;;7.88;2.00;;;20.30;99.90;;;;;;5071086;28;20021;-57
2023/07/15 05:34:18;;;;;;;6.07;1.65;;;20.40;99.90;;;;;;5070942;28;20020;-53
2023/07/15 05:36:43;;;;;;;5.22;1.88;;;20.60;99.90;;;;;;5071149;28;20530;-58
2023/07/15 05:39:09;;;;;;;3.53;1.67;;;20.80;99.90;;;;;;5070735;28;20057;-54
2023/07/15 05:41:34;;;;;;;3.17;1.58;;;20.80;99.90;;;;;;5074252;28;20032;-61
2023/07/15 05:44:00;;;;;;;2.10;1.30;;;21.00;99.90;;;;;;5075107;28;20095;-59
2023/07/15 05:46:26;;;;;;;3.47;1.77;;;21.10;99.90;;;;;;5074778;28;20104;-58
2023/07/15 05:48:51;;;;;;;3.67;1.60;;;21.30;99.90;;;;;;5074621;28;20478;-58
2023/07/15 05:51:17;;;;;;;2.33;1.40;;;21.40;99.90;;;;;;5074773;28;20482;-60
2023/07/15 05:53:43;;;;;;;6.32;1.77;;;21.50;99.90;;;;;;5074853;28;20077;-56
2023/07/15 05:56:08;;;;;;;3.38;1.92;;;21.70;99.90;;;;;;5074630;28;20020;-59
2023/07/15 05:58:34;;;;;;;3.67;1.70;;;21.80;99.90;;;;;;5074581;28;20028;-56
2023/07/15 06:00:59;;;;;;;2.78;1.50;;;22.00;99.90;;;;;;5074531;28;20028;-57
2023/07/15 06:03:28;;;;;;;3.80;1.60;;;22.20;99.90;;;;;;5074578;28;20115;-58
2023/07/15 06:06:00;;;;;;;9.60;1.88;;;22.20;99.90;;;;;;5074419;28;20463;-57
2023/07/15 06:08:26;;;;;;;6.05;1.88;;;22.40;99.90;;;;;;5074258;28;20032;-61
2023/07/15 06:10:51;;;;;;;3.17;1.70;;;22.50;99.90;;;;;;5074885;28;20028;-59
2023/07/15 06:13:17;;;;;;;4.60;1.75;;;22.60;99.90;;;;;;5074463;28;20091;-58
2023/07/15 06:15:47;;;;;;;5.05;2.03;;;22.70;99.90;;;;;;5074321;28;20024;-60
2023/07/15 06:18:12;;;;;;;6.00;1.60;;;22.90;99.90;;;;;;5074168;28;20046;-59
2023/07/15 06:20:40;;;;;;;7.35;1.73;;;23.00;99.90;;;;;;5074172;28;20604;-59
2023/07/15 06:23:05;;;;;;;3.33;1.58;;;23.20;99.90;;;;;;5074305;28;20633;-59
2023/07/15 06:25:31;;;;;;;4.35;1.38;;;23.30;99.90;;;;;;5074028;28;20119;-55
2023/07/15 06:27:57;;;;;;;3.60;1.75;;;23.50;99.90;;;;;;5073931;28;20506;-59
2023/07/15 06:30:22;;;;;;;3.75;1.98;;;23.80;99.90;;;;;;5073884;28;20501;-61
2023/07/15 06:32:50;;;;;;;2.28;1.42;;;24.00;99.90;;;;;;5074203;28;20154;-60
2023/07/15 06:35:15;;;;;;;3.65;1.58;;;24.10;99.90;;;;;;5073777;28;20025;-61
2023/07/15 06:37:41;;;;;;;8.75;1.58;;;24.20;99.90;;;;;;5073984;28;20020;-60
2023/07/15 06:40:07;;;;;;;4.70;1.80;;;24.40;99.90;;;;;;5073745;28;20079;-58
2023/07/15 06:42:33;;;;;;;2.95;1.60;;;24.60;99.90;;;;;;5073605;28;20399;-56
2023/07/15 06:44:58;;;;;;;3.10;1.60;;;24.70;99.90;;;;;;5073688;28;20096;-59
2023/07/15 06:47:24;;;;;;;4.82;1.63;;;24.70;99.90;;;;;;5073622;28;20043;-59
2023/07/15 06:49:50;;;;;;;5.40;1.92;;;24.70;99.90;;;;;;5073450;28;20028;-62
2023/07/15 06:52:15;;;;;;;2.92;1.80;;;24.80;99.90;;;;;;5072497;28;20661;-59
2023/07/15 06:54:41;;;;;;;2.53;1.40;;;24.80;99.90;;;;;;5073561;28;20027;-58
2023/07/15 06:57:07;;;;;;;5.10;1.67;;;24.90;99.90;;;;;;5073451;28;20078;-61
2023/07/15 06:59:32;;;;;;;5.15;1.40;;;24.90;99.90;;;;;;5073322;28;20059;-54
2023/07/15 07:01:58;;;;;;;7.63;1.83;;;24.90;99.90;;;;;;5073570;28;20032;-54
2023/07/15 07:04:23;;;;;;;5.30;1.65;;;24.90;99.90;;;;;;5073286;28;20027;-61
2023/07/15 07:06:49;;;;;;;6.55;1.67;;;24.90;99.90;;;;;;5073494;28;20456;-55
2023/07/15 07:09:14;;;;;;;8.82;2.15;;;24.90;99.90;;;;;;5072905;28;20459;-55
2023/07/15 07:11:40;;;;;;;6.80;2.20;;;24.90;99.90;;;;;;5073176;28;20056;-57
2023/07/15 07:14:05;;;;;;;4.78;1.48;;;24.90;99.90;;;;;;5073288;28;20147;-60
2023/07/15 07:16:31;;;;;;;1.65;1.42;;;24.80;99.90;;;;;;5073149;28;20032;-59
2023/07/15 07:18:56;;;;;;;6.05;1.50;;;24.80;99.90;;;;;;5072804;28;20040;-61
2023/07/15 07:21:22;;;;;;;4.22;2.45;;;24.80;99.90;;;;;;5073089;28;20024;-60
2023/07/15 07:23:52;;;;;;;3.38;2.05;;;24.70;99.90;;;;;;5073118;28;20032;-57
2023/07/15 07:26:18;;;;;;;3.95;1.98;;;24.60;99.90;;;;;;5072787;28;20078;-57
2023/07/15 07:28:44;;;;;;;4.55;1.67;;;24.50;99.90;;;;;;5072809;28;20474;-54
2023/07/15 07:31:12;;;;;;;4.38;1.70;;;24.60;99.90;;;;;;5072752;28;20108;-56
2023/07/15 07:33:40;;;;;;;4.82;1.95;;;24.50;99.90;;;;;;5072865;28;20025;-57
2023/07/15 07:36:05;;;;;;;9.77;2.20;;;24.30;99.90;;;;;;5072752;28;20025;-61
2023/07/15 07:38:31;;;;;;;5.85;2.00;;;24.10;99.90;;;;;;5072725;28;20449;-58
2023/07/15 07:41:06;;;;;;;6.25;2.22;;;23.90;99.90;;;;;;5072421;28;20482;-57
2023/07/15 07:43:33;;;;;;;3.42;1.90;;;23.60;99.90;;;;;;5072564;28;20089;-55
2023/07/15 07:46:00;;;;;;;3.20;1.58;;;23.40;99.90;;;;;;5072555;28;20024;-55
2023/07/15 07:48:26;;;;;;;3.85;2.08;;;23.30;99.90;;;;;;5072428;28;20394;-56
2023/07/15 07:50:52;;;;;;;4.30;1.80;;;23.20;99.90;;;;;;5072439;28;20096;-57
2023/07/15 07:53:17;;;;;;;4.40;1.85;;;23.20;99.90;;;;;;5072355;28;20020;-59
2023/07/15 07:55:43;;;;;;;3.47;2.00;;;23.00;99.90;;;;;;5072364;28;20017;-59
2023/07/15 07:58:08;;;;;;;3.53;2.10;;;23.00;99.90;;;;;;5072275;28;20429;-59
2023/07/15 08:00:34;;;;;;;9.57;1.88;;;23.00;99.90;;;;;;5072232;28;20036;-58
2023/07/15 08:02:59;;;;;;;3.78;2.10;;;23.00;99.90;;;;;;5071980;28;20036;-62
2023/07/15 08:05:25;;;;;;;4.28;2.30;;;23.10;99.90;;;;;;5072028;28;20028;-62
2023/07/15 08:07:50;;;;;;;2.97;1.77;;;23.10;99.90;;;;;;5072079;28;20021;-60
2023/07/15 08:10:16;;;;;;;11.25;2.17;;;23.20;99.90;;;;;;5071846;28;20032;-61
2023/07/15 08:12:42;;;;;;;5.13;2.70;;;23.20;99.90;;;;;;5072090;28;20025;-61
2023/07/15 08:15:07;;;;;;;4.65;2.05;;;23.20;99.90;;;;;;5071971;28;20021;-62
2023/07/15 08:17:33;;;;;;;4.53;2.05;;;23.00;99.90;;;;;;5071848;28;20049;-59
2023/07/15 08:19:59;;;;;;;6.15;2.00;;;22.80;99.90;;;;;;5071645;28;20036;-59
2023/07/15 08:22:24;;;;;;;3.75;2.20;;;22.60;99.90;;;;;;5071715;28;20394;-59
2023/07/15 08:24:50;;;;;;;8.77;3.10;;;22.40;99.90;;;;;;5071611;28;20074;-58
2023/07/15 08:27:15;;;;;;;4.97;2.47;;;22.10;99.90;;;;;;5071512;28;20404;-53
2023/07/15 08:29:41;;;;;;;6.47;2.80;;;21.70;99.90;;;;;;5071518;28;20490;-61
2023/07/15 08:32:07;;;;;;;11.32;2.72;;;21.30;99.90;;;;;;5071789;28;20020;-58
2023/07/15 08:34:32;;;;;;;7.07;3.13;;;21.20;99.90;;;;;;5071656;28;20059;-60
2023/07/15 08:36:58;;;;;;;8.93;3.20;;;20.90;99.90;;;;;;5071701;28;20129;-59
2023/07/15 08:39:23;;;;;;;6.72;3.00;;;20.60;99.90;;;;;;5071442;28;20032;-59
2023/07/15 08:41:52;;;;;;;4.13;2.28;;;20.70;99.90;;;;;;5071583;28;20040;-60
2023/07/15 08:44:18;;;;;;;4.38;2.20;;;20.70;99.90;;;;;;5071485;28;20032;-60
2023/07/15 08:46:44;;;;;;;6.70;2.92;;;20.80;99.90;;;;;;5071606;28;20112;-61
2023/07/15 08:49:11;;;;;;;10.38;2.95;;;20.60;99.90;;;;;;5071148;28;20082;-62
2023/07/15 08:51:38;;;;;;;11.50;3.90;;;20.50;99.90;;;;;;5071572;28;20059;-59
2023/07/15 08:54:06;;;;;;;10.38;4.70;;;20.40;99.90;;;;;;5071514;28;20471;-61
2023/07/15 08:56:34;;;;;;;11.38;3.85;;;20.40;99.90;;;;;;5071407;28;20025;-61
2023/07/15 08:59:00;;;;;;;14.77;4.38;;;20.30;99.90;;;;;;5071311;28;20116;-61
2023/07/15 09:01:26;;;;;;;5.47;2.85;;;20.20;99.90;;;;;;5071470;28;20099;-57
2023/07/15 09:03:51;;;;;;;7.85;3.28;;;20.20;99.90;;;;;;5071438;28;20483;-59
2023/07/15 09:06:17;;;;;;;10.00;3.58;;;20.20;99.90;;;;;;5071098;28;20017;-59
2023/07/15 09:08:43;;;;;;;8.13;3.60;;;20.10;99.90;;;;;;5071369;28;20054;-61
2023/07/15 09:11:11;;;;;;;11.40;3.75;;;20.00;99.90;;;;;;5071297;28;20044;-59
2023/07/15 09:13:37;;;;;;;8.70;3.65;;;20.00;99.90;;;;;;5071359;28;20483;-61
2023/07/15 09:16:03;;;;;;;11.18;4.22;;;20.10;99.90;;;;;;5070514;28;20103;-61
2023/07/15 09:18:29;;;;;;;9.48;4.03;;;20.10;99.90;;;;;;5071304;28;20060;-60
2023/07/15 09:21:15;;;;;;;12.65;3.88;;;20.00;99.90;;;;;;5071252;28;20052;-61
2023/07/15 09:23:43;;;;;;;10.82;4.38;;;20.00;99.90;;;;;;5071821;28;20099;-58
2023/07/15 09:26:09;;;;;;;10.43;5.28;;;20.00;99.90;;;;;;5071171;28;20021;-58
2023/07/15 09:28:36;;;;;;;7.65;4.10;;;19.90;99.90;;;;;;5071019;28;20039;-59
2023/07/15 09:31:01;;;;;;;15.82;4.40;;;19.90;99.90;;;;;;5070965;28;20191;-61
2023/07/15 09:33:32;;;;;;;11.98;5.25;;;19.90;99.90;;;;;;5071030;28;20091;-61
2023/07/15 09:35:59;;;;;;;9.52;4.05;;;19.80;99.90;;;;;;5070960;28;20066;-60
2023/07/15 09:38:30;;;;;;;13.02;4.68;;;19.80;99.90;;;;;;5070958;28;20020;-62
2023/07/15 09:40:56;;;;;;;8.70;4.45;;;19.90;99.90;;;;;;5070849;28;20375;-62
2023/07/15 09:43:21;;;;;;;6.43;3.47;;;19.80;99.90;;;;;;5071097;28;20040;-60
2023/07/15 09:45:48;;;;;;;11.18;4.57;;;19.80;99.90;;;;;;5070843;28;20024;-61
2023/07/15 09:48:16;;;;;;;13.68;4.70;;;19.80;99.90;;;;;;5070815;28;20050;-63
2023/07/15 09:50:42;;;;;;;9.18;4.50;;;19.90;99.90;;;;;;5070660;28;20059;-60
2023/07/15 09:53:09;;;;;;;11.40;5.22;;;20.00;99.90;;;;;;5070964;28;20028;-59
2023/07/15 09:55:36;;;;;;;19.67;5.38;;;20.00;99.90;;;;;;5070855;28;20066;-60
2023/07/15 09:58:05;;;;;;;10.35;5.32;;;19.90;99.90;;;;;;5070780;28;20104;-63
2023/07/15 10:00:34;;;;;;;12.68;5.95;;;19.90;99.90;;;;;;5070580;28;20029;-61
2023/07/15 10:03:02;;;;;;;8.45;5.18;;;19.90;99.90;;;;;;5070883;28;20032;-61
2023/07/15 10:05:28;;;;;;;12.77;5.05;;;19.90;99.90;;;;;;5070679;28;20525;-62
2023/07/15 10:07:55;;;;;;;13.45;5.45;;;19.90;99.90;;;;;;5070850;28;20035;-62
2023/07/15 10:10:21;;;;;;;11.00;6.10;;;19.90;99.90;;;;;;5070548;28;20025;-60
2023/07/15 10:12:48;;;;;;;9.20;5.68;;;20.00;99.90;;;;;;5070752;28;20070;-62
2023/07/15 10:15:14;;;;;;;12.23;5.75;;;20.00;99.90;;;;;;5070610;28;20479;-61
2023/07/15 10:17:39;;;;;;;10.15;5.72;;;19.90;99.90;;;;;;5070843;28;20103;-60
2023/07/15 10:20:10;;;;;;;17.90;6.88;;;20.00;99.90;;;;;;5070578;28;20473;-63
2023/07/15 10:22:36;;;;;;;10.07;6.07;;;19.90;99.90;;;;;;5070832;28;20112;-58
2023/07/15 10:25:04;;;;;;;7.85;5.55;;;19.90;99.90;;;;;;5070624;28;20099;-60
2023/07/15 10:27:32;;;;;;;10.15;5.97;;;20.00;99.90;;;;;;5073379;28;20033;-62
2023/07/15 10:30:16;;;;;;;15.00;6.65;;;20.00;99.90;;;;;;5074069;28;20021;-62
2023/07/15 10:33:00;;;;;;;;;;;20.00;99.90;;;;;;5074728;28;20104;-59
2023/07/15 10:35:33;;;;;;;8.68;5.68;;;20.00;99.90;;;;;;5073856;28;19904;-60
2023/07/15 10:38:25;;;;;;;12.70;6.93;;;20.00;99.90;;;;;;5073865;28;20028;-60
2023/07/15 10:41:05;;;;;;;11.55;6.80;;;20.00;99.90;;;;;;5073226;28;20033;-61
2023/07/15 10:43:33;;;;;;;16.33;6.85;;;20.00;99.90;;;;;;5073806;28;20028;-62
2023/07/15 10:46:02;;;;;;;15.25;6.18;;;20.00;99.90;;;;;;5073753;28;20035;-59
2023/07/15 10:48:28;;;;;;;11.05;5.78;;;20.00;99.90;;;;;;5073556;28;20020;-61
2023/07/15 10:50:55;;;;;;;15.02;6.05;;;20.10;99.90;;;;;;5073591;28;20027;-59
2023/07/15 10:53:26;;;;;;;13.50;6.63;;;20.10;99.90;;;;;;5073675;28;20013;-61
2023/07/15 10:56:02;;;;;;;11.77;6.50;;;20.10;99.90;;;;;;5073677;28;20021;-62
2023/07/15 10:58:30;;;;;;;13.70;7.13;;;20.20;99.90;;;;;;5073449;28;20372;-60
2023/07/15 11:01:03;;;;;;;13.57;8.20;;;20.30;99.90;;;;;;5073399;28;20028;-62
2023/07/15 11:03:30;;;;;;;13.52;7.70;;;20.40;99.90;;;;;;5073415;28;20117;-60
2023/07/15 11:05:58;;;;;;;18.42;8.75;;;20.70;99.90;;;;;;5073392;28;20054;-62
2023/07/15 11:08:24;;;;;;;13.98;8.40;;;20.90;99.90;;;;;;5073338;28;20025;-60
2023/07/15 11:10:56;;;;;;;9.07;6.68;;;21.00;99.90;;;;;;5073246;28;20024;-61
2023/07/15 11:13:21;;;;;;;14.82;6.82;;;21.10;99.90;;;;;;5073358;28;20017;-62
2023/07/15 11:15:47;;;;;;;10.77;6.90;;;21.00;99.90;;;;;;5073305;28;20528;-59
2023/07/15 11:18:17;;;;;;;14.10;6.78;;;21.00;99.90;;;;;;5073158;28;20031;-59
2023/07/15 11:20:46;;;;;;;13.25;5.95;;;21.00;99.90;;;;;;5073115;28;20078;-61
2023/07/15 11:23:13;;;;;;;10.15;6.53;;;21.00;99.90;;;;;;5073098;28;20024;-59
2023/07/15 11:25:38;;;;;;;9.50;5.82;;;21.00;99.90;;;;;;5072920;28;20052;-60
2023/07/15 11:28:05;;;;;;;10.63;6.40;;;21.10;99.90;;;;;;5072916;28;20056;-58
2023/07/15 11:30:45;;;;;;;12.98;6.95;;;21.20;99.90;;;;;;5072880;28;20637;-62
2023/07/15 11:33:11;;;;;;;8.73;5.75;;;21.10;99.90;;;;;;5072952;28;20020;-61
2023/07/15 11:35:38;;;;;;;8.73;6.00;;;21.10;99.90;;;;;;5072832;28;20032;-59
2023/07/15 11:38:15;;;;;;;10.73;5.53;;;21.20;99.90;;;;;;5072277;28;20540;-61
2023/07/15 11:40:54;;;;;;;9.52;5.70;;;21.30;99.90;;;;;;5072716;28;20438;-60
2023/07/15 11:43:22;;;;;;;8.45;5.90;;;21.30;99.90;;;;;;5073048;28;20119;-61
2023/07/15 11:45:48;;;;;;;10.98;5.78;;;21.60;99.90;;;;;;5072654;28;20035;-62
2023/07/15 11:48:22;;;;;;;9.20;6.15;;;21.70;99.90;;;;;;5072508;28;20048;-59
2023/07/15 11:50:48;;;;;;;14.18;6.95;;;21.80;99.90;;;;;;5072261;28;20052;-60
2023/07/15 11:53:30;;;;;;;11.30;5.45;;;21.70;99.90;;;;;;5071220;28;20059;-61
2023/07/15 11:55:57;;;;;;;10.68;5.25;;;21.80;99.90;;;;;;5072384;28;20031;-61
2023/07/15 11:58:44;;;;;;;8.90;5.75;;;22.00;99.90;;;;;;5072413;28;20054;-62
2023/07/15 12:01:18;;;;;;;9.60;5.20;;;22.00;99.90;;;;;;5072278;28;20048;-62
2023/07/15 12:03:45;;;;;;;9.73;5.82;;;22.00;99.90;;;;;;5072268;28;20033;-59
2023/07/15 12:06:16;;;;;;;11.40;5.93;;;22.20;99.90;;;;;;5072209;28;20146;-60
2023/07/15 12:08:43;;;;;;;8.00;5.10;;;22.20;99.90;;;;;;5064219;28;20036;-58
2023/07/15 12:11:16;;;;;;;10.75;5.88;;;22.30;99.90;;;;;;5058517;28;20032;-58
2023/07/15 12:13:41;;;;;;;11.40;5.97;;;22.30;99.90;;;;;;5054299;28;20032;-58
2023/07/15 12:16:07;;;;;;;9.70;5.82;;;22.30;99.90;;;;;;5050749;28;20029;-60
2023/07/15 12:18:33;;;;;;;11.27;6.68;;;22.30;99.90;;;;;;5071942;28;20692;-60
2023/07/15 12:20:58;;;;;;;13.85;6.75;;;22.20;99.90;;;;;;5062234;28;20036;-55
2023/07/15 12:23:24;;;;;;;9.20;5.68;;;22.30;99.90;;;;;;5067595;28;20500;-59
2023/07/15 12:25:50;;;;;;;11.07;5.95;;;22.20;99.90;;;;;;5070207;28;20029;-56
2023/07/15 12:28:15;;;;;;;9.05;6.00;;;22.20;99.90;;;;;;5071726;28;20032;-53
2023/07/15 12:30:41;;;;;;;10.45;6.22;;;22.30;99.90;;;;;;5069088;28;20017;-58
2023/07/15 12:33:06;;;;;;;8.57;6.40;;;22.30;99.90;;;;;;5071767;28;20033;-57
2023/07/15 12:35:32;;;;;;;15.60;6.90;;;22.20;99.90;;;;;;5071204;28;20024;-58
2023/07/15 12:37:57;;;;;;;12.27;6.53;;;22.20;99.90;;;;;;5065637;28;20024;-59
2023/07/15 12:40:23;;;;;;;14.57;6.45;;;22.20;99.90;;;;;;5049694;28;20430;-60
2023/07/15 12:42:48;;;;;;;10.80;6.63;;;22.20;99.90;;;;;;5065053;28;20490;-60
2023/07/15 12:45:15;;;;;;;8.35;6.18;;;22.10;99.90;;;;;;5070938;28;20054;-61